Pagrindinis puslapis
METAR-TAF:

METAR-TAF

Oro uostai :

Nakhon Si Thammarat, Tailandas

platuma: 8-32-22N, ilguma: 99-56-41E, Aukštis: 4 m

Dabartinis oras

Ataskaita buvo paskelbta 48 minutes, ne 10:00 UTC
Vėjas 7 kt iš Rytų, svyruoja nuo Rytų/Šiaurės Rytų ir Rytų/Pietryčių
Temperatūra 29°C
Drėgmė 74%
Slėgis 1010 hPa
Matomumas 10 km arba daugiau
Mažai debesys ne aukštis 1800 ft

METAR: VTSF 171000Z 09007KT 060V120 9999 FEW018 29/24 Q1010 NOSIG

Laikas: 17:48 (10:48 UTC)

Prognozė

Ataskaita buvo paskelbta 5 valandos ir 48 minutes, ne 05:00 UTC
Prognozė galioja nuo 17 metu 06 UTC su 18 metu 06 UTC
Vėjas 8 kt iš Rytų
Matomumas 10 km arba daugiau
Išsisklaidę debesys ne aukštis 2000 ft
Išsisklaidę debesys ne aukštis 10000 ft

TAF: VTSF 170500Z 1706/1806 10008KT 9999 SCT020 SCT100

Orai ataskaitas ir orų prognozės (METAR, TAF).

turimą stotys yra geltonos ir raudonos taškus žemėlapyje.

Perkelti pele per norėdami pamatyti stoties vardą.

Tada spustelėkite, norėdami matyti oro stebėjimo ir prognozės.

Norėdami pakeisti žemėlapį: spustelėkite ant žalios mygtukų su juodo kryžiaus žemyn,; žalią mygtuką su brūkšneliu, jei norite nutolinti; arba žalių rodyklių gretimoms žemėlapius.


METAR-TAF: